• Join FlightAware (Why Join?)
  • Login
  • US Flag 
01:40AM EST


 

Airport Tracker/Info


-or-


 

Live Flight TrackerFlight Track Log ✈ EJA831 ✈ 05-May-2014 ✈ KTYQ - KSUA

Flight Track Log - Related Links

Times and Time Zones

All times are in EDT time to prevent confusion due to time zone crossing. See the EJA831 flight status page for this flight to view local times or setup timezone preferences in your user account.

Time Position Orientation Groundspeed Altitude Reporting Facility
EDT Latitude Longitude Course Direction KTS MPH feet Rate Location/Type
07:07AM 40.0167 -86.2500 229° Southwest 167 192 1,700  Level Indianapolis TRACON
07:08AM 39.9833 -86.3000 229° Southwest 218 251 3,400 1,440 Climbing Indianapolis TRACON
07:09AM 39.9661 -86.3150 214° Southwest 212 244 3,600 3,780 Climbing Indianapolis Center
07:10AM 39.9222 -86.3614 219° Southwest 207 238 9,200 3,960 Climbing Indianapolis Center
07:11AM 39.8472 -86.3622 180° South 269 310 11,700 2,820 Climbing Indianapolis Center
07:12AM 39.7464 -86.3533 176° South 306 352 15,000 2,940 Climbing Indianapolis Center
07:13AM 39.6583 -86.3425 175° South 321 369 17,800 2,340 Climbing Indianapolis Center
07:14AM 39.5672 -86.3325 175° South 325 374 19,800 2,100 Climbing Indianapolis Center
07:15AM 39.4700 -86.3225 175° South 343 395 22,100 2,160 Climbing Indianapolis Center
07:16AM 39.3694 -86.3119 175° South 358 412 24,300 2,100 Climbing Indianapolis Center
07:17AM 39.2669 -86.3011 175° South 364 419 26,400 1,800 Climbing Indianapolis Center
07:18AM 39.1381 -86.2872 175° South 383 441 28,100 1,560 Climbing Indianapolis Center
07:19AM 39.0247 -86.2767 176° South 401 461 29,600 1,680 Climbing Indianapolis Center
07:20AM 38.9119 -86.2647 175° South 405 466 31,600 1,740 Climbing Indianapolis Center
07:21AM 38.8147 -86.2539 175° South 404 465 33,200 1,800 Climbing Indianapolis Center
07:22AM 38.6819 -86.2397 175° South 398 458 35,300 1,680 Climbing Indianapolis Center
07:23AM 38.5733 -86.2056 166° South 400 460 36,700 1,320 Climbing Indianapolis Center
07:24AM 38.4811 -86.1078 140° Southeast 423 487 38,000 1,320 Climbing Indianapolis Center
07:25AM 38.4022 -85.9947 132° Southeast 423 487 39,400 960 Climbing Indianapolis Center
07:26AM 38.3222 -85.8808 132° Southeast 424 488 40,000 240 Climbing Indianapolis Center
07:27AM 38.2364 -85.7617 133° Southeast 444 511 40,000  Level Indianapolis Center
07:28AM 38.1458 -85.6378 133° Southeast 469 540 40,000  Level Indianapolis Center
07:29AM 38.0267 -85.5567 152° Southeast 474 545 40,000  Level Indianapolis Center
07:30AM 37.8978 -85.5233 168° South 467 537 40,000  Level Indianapolis Center
07:31AM 37.7725 -85.4883 168° South 470 541 40,000  Level Indianapolis Center
07:32AM 37.6461 -85.4539 168° South 469 540 40,000  Level Indianapolis Center
07:33AM 37.4989 -85.4144 168° South 468 539 40,000  Level Indianapolis Center
07:34AM 37.3711 -85.3817 168° South 467 537 40,000  Level Indianapolis Center
07:35AM 37.2450 -85.3478 168° South 465 535 40,000  Level Indianapolis Center
07:36AM 37.1183 -85.3142 168° South 465 535 40,000  Level Indianapolis Center
07:37AM 36.9844 -85.2786 168° South 465 535 40,000  Level Indianapolis Center
07:38AM 36.8608 -85.2464 168° South 460 529 40,000 -240 Level Indianapolis Center
07:39AM 36.7361 -85.2133 168° South 457 526 39,600 -480 Descending Indianapolis Center
07:40AM 36.6119 -85.1817 168° South 457 526 39,100 -300 Descending Indianapolis Center
07:41AM 36.4844 -85.1492 168° South 458 527 39,000 -60 Descending Indianapolis Center
07:43AM 36.3581 -85.1156 168° South 463 533 39,000  Level Indianapolis Center
07:44AM 36.2067 -85.0772 168° South 463 533 39,000  Level Indianapolis Center
07:45AM 36.0831 -85.0456 168° South 461 531 39,000  Level Indianapolis Center
07:46AM 35.9556 -85.0136 169° South 458 527 39,000  Level Indianapolis Center
07:47AM 35.8308 -84.9819 168° South 456 525 39,000  Level Indianapolis Center
07:48AM 35.6942 -84.9517 170° South 459 528 39,000  Level Atlanta Center
07:49AM 35.5733 -84.9197 168° South 459 528 39,000  Level Atlanta Center
07:50AM 35.4525 -84.8878 168° South 449 517 39,000  Level Atlanta Center
07:51AM 35.3317 -84.8558 168° South 449 517 39,000  Level Atlanta Center
07:52AM 35.2089 -84.8267 169° South 449 517 39,000  Level Atlanta Center
07:53AM 35.0858 -84.7953 168° South 449 517 39,000  Level Atlanta Center
07:54AM 34.9650 -84.7661 169° South 449 517 39,000  Level Atlanta Center
07:55AM 34.8419 -84.7347 168° South 449 517 39,000  Level Atlanta Center
07:56AM 34.7211 -84.7033 168° South 449 517 39,000  Level Atlanta Center
07:57AM 34.6025 -84.6747 169° South 443 510 39,000  Level Atlanta Center
07:58AM 34.4817 -84.6411 167° South 443 510 39,000  Level Atlanta Center
07:59AM 34.3606 -84.6125 169° South 443 510 39,000  Level Atlanta Center
08:00AM 34.2375 -84.5839 169° South 448 516 39,000  Level Atlanta Center
08:01AM 34.1147 -84.5556 169° South 453 521 39,000  Level Atlanta Center
08:02AM 33.9958 -84.5250 168° South 453 521 39,000  Level Atlanta Center
08:03AM 33.8728 -84.4967 169° South 441 507 39,000  Level Atlanta Center
08:04AM 33.7539 -84.4686 169° South 447 514 39,000  Level Atlanta Center
08:05AM 33.6328 -84.4356 167° South 447 514 39,000  Level Atlanta Center
08:06AM 33.5161 -84.3925 163° South 441 507 39,000  Level Atlanta Center
08:07AM 33.4014 -84.3450 161° South 441 507 39,000  Level Atlanta Center
08:08AM 33.2847 -84.2947 160° South 441 507 39,000  Level Atlanta Center
08:09AM 33.1719 -84.2447 160° South 441 507 39,000  Level Atlanta Center
08:10AM 33.0572 -84.1975 161° South 441 507 39,000  Level Atlanta Center
08:11AM 32.9425 -84.1528 162° South 436 502 39,000  Level Atlanta Center
08:12AM 32.8278 -84.1031 160° South 436 502 39,000  Level Atlanta Center
08:13AM 32.7108 -84.0586 162° South 436 502 39,000  Level Atlanta Center
08:14AM 32.5983 -84.0117 161° South 441 507 39,000  Level Atlanta Center
08:15AM 32.4833 -83.9650 161° South 441 507 39,000  Level Atlanta Center
08:16AM 32.3706 -83.9158 160° South 441 507 39,000  Level Atlanta Center
08:17AM 32.2578 -83.8719 162° South 436 502 39,000  Level Atlanta Center
08:19AM 32.0236 -83.7747 161° South 449 517 39,000  Level Jacksonville Center
08:20AM 31.9153 -83.7297 161° South 435 501 39,000  Level Jacksonville Center
08:21AM 31.8008 -83.6822 161° South 435 501 39,000  Level Jacksonville Center
08:22AM 31.6883 -83.6372 161° South 435 501 39,000  Level Jacksonville Center
08:23AM 31.5550 -83.5875 162° South 436 502 39,000  Level Jacksonville Center
08:24AM 31.4425 -83.5478 163° South 436 502 39,000  Level Jacksonville Center
08:25AM 31.3300 -83.5031 161° South 436 502 39,000  Level Jacksonville Center
08:26AM 31.2153 -83.4633 164° South 436 502 39,000  Level Jacksonville Center
08:27AM 31.1006 -83.4192 162° South 436 502 39,000  Level Jacksonville Center
08:28AM 30.9881 -83.3772 162° South 436 502 39,000 -240 Level Jacksonville Center
08:29AM 30.8756 -83.3306 160° South 436 502 38,600 -960 Descending Jacksonville Center
08:30AM 30.7733 -83.2939 163° South 430 495 37,100 -840 Descending Jacksonville Center
08:31AM 30.6564 -83.2500 162° South 430 495 37,000 -60 Descending Jacksonville Center
08:32AM 30.5397 -83.2086 163° South 436 502 37,000  Level Jacksonville Center
08:33AM 30.4228 -83.1647 162° South 441 507 37,000  Level Jacksonville Center
08:34AM 30.3061 -83.1236 163° South 441 507 37,000  Level Jacksonville Center
08:35AM 30.1892 -83.0800 162° South 441 507 37,000  Level Jacksonville Center
08:36AM 30.0722 -83.0367 162° South 435 501 37,000  Level Jacksonville Center
08:37AM 29.9533 -82.9981 164° South 441 507 37,000  Level Jacksonville Center
08:38AM 29.8386 -82.9547 162° South 436 502 37,000  Level Jacksonville Center
08:39AM 29.7236 -82.9142 163° South 436 502 37,000  Level Jacksonville Center
08:40AM 29.6108 -82.8736 163° South 436 502 37,000  Level Jacksonville Center
08:41AM 29.4814 -82.8211 161° South 442 509 37,000  Level Jacksonville Center
08:42AM 29.3667 -82.7806 163° South 442 509 37,000  Level Jacksonville Center
08:43AM 29.2497 -82.7378 162° South 442 509 37,000  Level Jacksonville Center
08:44AM 29.1328 -82.6975 163° South 442 509 37,000  Level Jacksonville Center
08:45AM 29.0178 -82.6575 163° South 442 509 37,000  Level Jacksonville Center
08:46AM 28.9031 -82.6150 162° South 442 509 37,000  Level Jacksonville Center
08:47AM 28.7839 -82.5750 164° South 442 509 37,000  Level Jacksonville Center
08:48AM 28.6711 -82.5328 162° South 442 509 37,000  Level Jacksonville Center
08:49AM 28.5542 -82.4931 163° South 437 503 37,000  Level Jacksonville Center
08:50AM 28.4392 -82.4536 163° South 437 503 37,000  Level Jacksonville Center
08:51AM 28.2486 -82.3850 162° South 445 512 37,000 -60 Level Miami Center
08:52AM 28.1311 -82.3442 163° South 445 512 36,900 -1,020 Descending Miami Center
08:53AM 28.0117 -82.3053 164° South 445 512 35,000 -960 Descending Miami Center
08:54AM 27.8986 -82.2625 162° South 440 506 35,000  Level Miami Center
08:55AM 27.7831 -82.2239 164° South 433 498 35,000 -300 Level Miami Center
08:56AM 27.6617 -82.1808 163° South 433 498 34,400 -1,320 Descending Miami Center
08:57AM 27.5464 -82.1403 163° South 438 504 32,400 -1,980 Descending Miami Center
08:58AM 27.4411 -82.1075 165° South 433 498 30,500 -1,980 Descending Miami Center
08:59AM 27.3236 -82.0647 162° South 433 498 28,500 -2,160 Descending Miami Center
09:00AM 27.1936 -82.0214 163° South 438 504 26,200 -2,160 Descending Miami Center
09:01AM 27.0761 -81.9836 164° South 438 504 24,200 -1,140 Descending Miami Center
09:02AM 26.9750 -81.9489 163° South 431 496 24,000 -300 Descending Miami Center
09:03AM 26.8667 -81.8883 153° Southeast 431 496 23,600 -1,260 Descending Miami Center
09:04AM 26.7842 -81.7964 135° Southeast 417 480 21,500 -1,980 Descending Miami Center
09:05AM 26.7036 -81.7094 136° Southeast 417 480 19,700 -1,260 Descending Miami Center
09:06AM 26.6997 -81.5744 92° East 354 407 19,000 -360 Descending Miami Center
09:07AM 26.7281 -81.4661 74° East 363 418 19,000 -240 Level Miami Center
09:08AM 26.7547 -81.3511 75° East 381 438 18,600 -1,260 Descending Miami Center
09:09AM 26.7833 -81.2358 74° East 391 450 16,500 -2,040 Descending Miami Center
09:10AM 26.8094 -81.1275 75° East 370 426 14,600 -1,920 Descending Miami Center
09:11AM 26.8211 -81.0186 83° East 355 409 12,700 -1,800 Descending Miami Center
09:12AM 26.8322 -80.9142 83° East 343 395 11,000 -1,380 Descending Miami Center
09:13AM 26.8164 -80.8067 99° East 331 381 10,000 -540 Descending Miami Center
09:14AM 26.8294 -80.7139 81° East 299 344 10,000 -300 Level Miami Center
09:15AM 26.8794 -80.6386 53° Northeast 292 336 9,400 -1,020 Descending Miami Center
09:16AM 26.9247 -80.5797 49° Northeast 281 323 8,000 -1,440 Descending Miami Center
09:17AM 26.9703 -80.5136 52° Northeast 268 308 6,600 -1,560 Descending Miami Center
09:18AM 27.0200 -80.4453 51° Northeast 260 299 4,900 -1,320 Descending Miami Center
09:19AM 27.0633 -80.3858 51° Northeast 254 292 4,000 -960 Descending Miami Center
09:20AM 27.1042 -80.3311 50° Northeast 249 287 3,000 -1,020 Descending Miami Center
09:22AM 27.1667 -80.2167 North  Level FlightAware Approximate
09:29AM 27.1817 -80.2213 North  Level Estimated
09:30AM 27.1817 -80.2213 North  Level Estimated
09:31AM 27.1817 -80.2213 North  Level Estimated
09:32AM 27.1817 -80.2213 North  Level Estimated
09:33AM 27.1817 -80.2213 North  Level Estimated
09:34AM 27.1817 -80.2213 North  Level Estimated